Time;durP1;ratioP1;P1;durP2;ratioP2;P2;SDS_P1;SDS_P2;PMS_P1;PMS_P2;Temp;Humidity;BMP_temperature;BMP_pressure;BME280_temperature;BME280_humidity;BME280_pressure;Samples;Min_cycle;Max_cycle;Signal;HPM_P1;HPM_P2
2022/10/15 00:02:02;;;;;;;;;;;;;;;;;;5030869;28;995;-69
2022/10/15 00:04:28;;;;;;;;;;;;;;;;;;5013364;28;1959;-69
2022/10/15 00:06:54;;;;;;;;;;;;;;;;;;5012788;28;1559;-69
2022/10/15 00:09:19;;;;;;;;;;;;;;;;;;5013433;28;1180;-69
2022/10/15 00:11:44;;;;;;;;;;;;;;;;;;5015594;28;1181;-69
2022/10/15 00:14:09;;;;;;;;;;;;;;;;;;5017104;28;1324;-69
2022/10/15 00:16:35;;;;;;;;;;;;;;;;;;5034289;28;924;-69
2022/10/15 00:19:00;;;;;;;;;;;;;;;;;;5016873;28;1264;-69
2022/10/15 00:21:26;;;;;;;;;;;;;;;;;;5033512;28;874;-69
2022/10/15 00:23:51;;;;;;;;;;;;;;;;;;5017376;28;1346;-69
2022/10/15 00:26:18;;;;;;;;;;;;;;;;;;5034398;28;1975;-69
2022/10/15 00:28:44;;;;;;;;;;;;;;;;;;5034716;28;900;-69
2022/10/15 00:31:13;;;;;;;;;;;;;;;;;;5016653;28;1335;-69
2022/10/15 00:33:39;;;;;;;;;;;;;;;;;;5017153;28;1104;-70
2022/10/15 00:36:04;;;;;;;;;;;;;;;;;;5034560;28;916;-69
2022/10/15 00:38:30;;;;;;;;;;;;;;;;;;5016756;28;1265;-69
2022/10/15 00:40:56;;;;;;;;;;;;;;;;;;5017060;28;1303;-69
2022/10/15 00:43:34;;;;;;;;;;;;;;;;;;5033420;28;865;-69
2022/10/15 00:45:59;;;;;;;;;;;;;;;;;;5016493;28;1969;-69
2022/10/15 00:48:25;;;;;;;;;;;;;;;;;;5016394;28;1409;-69
2022/10/15 00:50:50;;;;;;;;;;;;;;;;;;5033339;28;826;-69
2022/10/15 00:53:15;;;;;;;;;;;;;;;;;;5016065;28;1247;-69
2022/10/15 00:55:41;;;;;;;;;;;;;;;;;;5034789;28;814;-69
2022/10/15 00:58:09;;;;;;;;;;;;;;;;;;5016140;28;1206;-69
2022/10/15 01:00:34;;;;;;;;;;;;;;;;;;5016475;28;1355;-70
2022/10/15 01:02:59;;;;;;;;;;;;;;;;;;5017015;28;1066;-69
2022/10/15 01:05:25;;;;;;;;;;;;;;;;;;5034481;28;1969;-69
2022/10/15 01:07:50;;;;;;;;;;;;;;;;;;5016372;28;1288;-69
2022/10/15 01:10:16;;;;;;;;;;;;;;;;;;5032497;28;801;-69
2022/10/15 01:12:48;;;;;;;;;;;;;;;;;;5034805;28;826;-69
2022/10/15 01:15:32;;;;;;;;;;;;;;;;;;5016925;28;1296;-69
2022/10/15 01:18:01;;;;;;;;;;;;;;;;;;5034570;28;916;-69
2022/10/15 01:20:46;;;;;;;;;;;;;;;;;;5034379;28;833;-68
2022/10/15 01:23:41;;;;;;;;;;;;;;;;;;5015707;28;1303;-69
2022/10/15 01:26:15;;;;;;;;;;;;;;;;;;4978508;28;1906;-69
2022/10/15 01:28:49;;;;;;;;;;;;;;;;;;5032904;28;1189;-69
2022/10/15 01:31:15;;;;;;;;;;;;;;;;;;5034546;28;891;-69
2022/10/15 01:33:47;;;;;;;;;;;;;;;;;;5034858;28;1027;-68
2022/10/15 01:36:27;;;;;;;;;;;;;;;;;;5034037;28;1019;-69
2022/10/15 01:38:55;;;;;;;;;;;;;;;;;;5034443;28;884;-69
2022/10/15 01:41:20;;;;;;;;;;;;;;;;;;5033795;28;936;-69
2022/10/15 01:44:00;;;;;;;;;;;;;;;;;;5016537;28;1288;-69
2022/10/15 01:46:53;;;;;;;;;;;;;;;;;;5015678;28;1891;-69
2022/10/15 01:49:20;;;;;;;;;;;;;;;;;;5031048;28;957;-67
2022/10/15 01:51:47;;;;;;;;;;;;;;;;;;5032699;28;810;-66
2022/10/15 01:54:15;;;;;;;;;;;;;;;;;;5032376;28;896;-66
2022/10/15 01:56:45;;;;;;;;;;;;;;;;;;5033170;28;826;-66
2022/10/15 01:59:10;;;;;;;;;;;;;;;;;;5014892;28;1398;-66
2022/10/15 02:01:36;;;;;;;;;;;;;;;;;;5033326;28;913;-69
2022/10/15 02:04:01;;;;;;;;;;;;;;;;;;5015444;28;853;-69
2022/10/15 02:06:34;;;;;;;;;;;;;;;;;;5031863;28;1969;-69
2022/10/15 02:09:02;;;;;;;;;;;;;;;;;;5033207;28;850;-69
2022/10/15 02:11:28;;;;;;;;;;;;;;;;;;5015513;28;1217;-69
2022/10/15 02:14:08;;;;;;;;;;;;;;;;;;5033952;28;916;-69
2022/10/15 02:16:47;;;;;;;;;;;;;;;;;;5035027;28;899;-69
2022/10/15 02:19:31;;;;;;;;;;;;;;;;;;5033558;28;849;-69
2022/10/15 02:21:56;;;;;;;;;;;;;;;;;;5032340;28;802;-69
2022/10/15 02:24:24;;;;;;;;;;;;;;;;;;5032084;28;1879;-69
2022/10/15 02:26:51;;;;;;;;;;;;;;;;;;5032863;28;1102;-69
2022/10/15 02:29:20;;;;;;;;;;;;;;;;;;5032115;28;837;-69
2022/10/15 02:31:46;;;;;;;;;;;;;;;;;;5032349;28;1054;-69
2022/10/15 02:34:13;;;;;;;;;;;;;;;;;;5013896;28;1220;-69
2022/10/15 02:36:39;;;;;;;;;;;;;;;;;;5034038;28;923;-69
2022/10/15 02:39:06;;;;;;;;;;;;;;;;;;5015802;28;1165;-69
2022/10/15 02:41:33;;;;;;;;;;;;;;;;;;5014573;28;1077;-69
2022/10/15 02:43:58;;;;;;;;;;;;;;;;;;5032150;28;830;-69
2022/10/15 02:46:24;;;;;;;;;;;;;;;;;;5031965;28;1979;-69
2022/10/15 02:48:49;;;;;;;;;;;;;;;;;;5014175;28;1189;-69
2022/10/15 02:51:14;;;;;;;;;;;;;;;;;;5032060;28;805;-69
2022/10/15 02:53:39;;;;;;;;;;;;;;;;;;5031937;28;1051;-69
2022/10/15 02:56:05;;;;;;;;;;;;;;;;;;5031527;28;838;-69
2022/10/15 02:58:30;;;;;;;;;;;;;;;;;;5014333;28;1474;-69
2022/10/15 03:00:55;;;;;;;;;;;;;;;;;;5032150;28;881;-69
2022/10/15 03:03:21;;;;;;;;;;;;;;;;;;5014712;28;1301;-69
2022/10/15 03:05:46;;;;;;;;;;;;;;;;;;5032452;28;1945;-69
2022/10/15 03:08:12;;;;;;;;;;;;;;;;;;5031050;28;896;-69
2022/10/15 03:10:38;;;;;;;;;;;;;;;;;;5031371;28;814;-69
2022/10/15 03:13:04;;;;;;;;;;;;;;;;;;5032153;28;1066;-69
2022/10/15 03:15:29;;;;;;;;;;;;;;;;;;5013991;28;1329;-69
2022/10/15 03:17:54;;;;;;;;;;;;;;;;;;5013598;28;1368;-69
2022/10/15 03:20:20;;;;;;;;;;;;;;;;;;5029789;28;888;-69
2022/10/15 03:22:45;;;;;;;;;;;;;;;;;;5030170;28;1304;-69
2022/10/15 03:25:11;;;;;;;;;;;;;;;;;;5029972;28;1898;-69
2022/10/15 03:27:36;;;;;;;;;;;;;;;;;;5030964;28;1233;-69
2022/10/15 03:30:02;;;;;;;;;;;;;;;;;;5031112;28;884;-69
2022/10/15 03:32:27;;;;;;;;;;;;;;;;;;5013300;28;1308;-69
2022/10/15 03:34:52;;;;;;;;;;;;;;;;;;5031217;28;1050;-69
2022/10/15 03:37:17;;;;;;;;;;;;;;;;;;5013097;28;1185;-69
2022/10/15 03:39:43;;;;;;;;;;;;;;;;;;5013360;28;1370;-69
2022/10/15 03:42:08;;;;;;;;;;;;;;;;;;5011807;28;1291;-69
2022/10/15 03:44:33;;;;;;;;;;;;;;;;;;5013132;28;1910;-69
2022/10/15 03:46:59;;;;;;;;;;;;;;;;;;5029737;28;865;-69
2022/10/15 03:49:24;;;;;;;;;;;;;;;;;;5030900;28;833;-69
2022/10/15 03:51:49;;;;;;;;;;;;;;;;;;5013579;28;1192;-69
2022/10/15 03:54:14;;;;;;;;;;;;;;;;;;5030618;28;975;-69
2022/10/15 03:56:40;;;;;;;;;;;;;;;;;;5030941;28;900;-69
2022/10/15 03:59:05;;;;;;;;;;;;;;;;;;5012466;28;1517;-69
2022/10/15 04:01:30;;;;;;;;;;;;;;;;;;5029577;28;1011;-69
2022/10/15 04:03:56;;;;;;;;;;;;;;;;;;5029559;28;825;-69
2022/10/15 04:06:21;;;;;;;;;;;;;;;;;;5028910;28;1897;-69
2022/10/15 04:08:46;;;;;;;;;;;;;;;;;;5030468;28;881;-69
2022/10/15 04:11:11;;;;;;;;;;;;;;;;;;5030778;28;825;-69
2022/10/15 04:13:37;;;;;;;;;;;;;;;;;;5013437;28;1257;-68
2022/10/15 04:16:05;;;;;;;;;;;;;;;;;;5012983;28;1225;-68
2022/10/15 04:18:31;;;;;;;;;;;;;;;;;;5028674;28;1208;-68
2022/10/15 04:20:59;;;;;;;;;;;;;;;;;;5030571;28;904;-69
2022/10/15 04:23:25;;;;;;;;;;;;;;;;;;5030887;28;1050;-68
2022/10/15 04:25:50;;;;;;;;;;;;;;;;;;5012935;28;1902;-68
2022/10/15 04:28:15;;;;;;;;;;;;;;;;;;5011683;28;1321;-66
2022/10/15 04:30:40;;;;;;;;;;;;;;;;;;5028836;28;1177;-66
2022/10/15 04:33:06;;;;;;;;;;;;;;;;;;5028066;28;1209;-66
2022/10/15 04:35:33;;;;;;;;;;;;;;;;;;5029864;28;873;-66
2022/10/15 04:37:59;;;;;;;;;;;;;;;;;;5029447;28;960;-66
2022/10/15 04:40:24;;;;;;;;;;;;;;;;;;5031059;28;847;-66
2022/10/15 04:42:50;;;;;;;;;;;;;;;;;;5029949;28;837;-66
2022/10/15 04:45:15;;;;;;;;;;;;;;;;;;5011917;28;1915;-66
2022/10/15 04:47:40;;;;;;;;;;;;;;;;;;5029508;28;889;-68
2022/10/15 04:50:06;;;;;;;;;;;;;;;;;;5029875;28;904;-69
2022/10/15 04:52:32;;;;;;;;;;;;;;;;;;5028955;28;810;-69
2022/10/15 04:54:57;;;;;;;;;;;;;;;;;;5012562;28;1155;-68
2022/10/15 04:57:23;;;;;;;;;;;;;;;;;;5032181;28;916;-68
2022/10/15 04:59:48;;;;;;;;;;;;;;;;;;5016035;28;1321;-68
2022/10/15 05:02:14;;;;;;;;;;;;;;;;;;5033307;28;829;-68
2022/10/15 05:04:39;;;;;;;;;;;;;;;;;;5033400;28;1945;-68
2022/10/15 05:07:04;;;;;;;;;;;;;;;;;;5015134;28;1188;-68
2022/10/15 05:09:30;;;;;;;;;;;;;;;;;;5033622;28;928;-68
2022/10/15 05:11:55;;;;;;;;;;;;;;;;;;5032247;28;746;-68
2022/10/15 05:14:21;;;;;;;;;;;;;;;;;;5031634;28;919;-68
2022/10/15 05:16:46;;;;;;;;;;;;;;;;;;5033360;28;871;-68
2022/10/15 05:19:12;;;;;;;;;;;;;;;;;;5033158;28;881;-68
2022/10/15 05:21:38;;;;;;;;;;;;;;;;;;5015753;28;1291;-68
2022/10/15 05:24:04;;;;;;;;;;;;;;;;;;5015548;28;1365;-68
2022/10/15 05:26:30;;;;;;;;;;;;;;;;;;5015407;28;1902;-68
2022/10/15 05:28:57;;;;;;;;;;;;;;;;;;5015250;28;1367;-68
2022/10/15 05:31:23;;;;;;;;;;;;;;;;;;5032819;28;884;-68
2022/10/15 05:33:50;;;;;;;;;;;;;;;;;;5015371;28;1306;-68
2022/10/15 05:36:20;;;;;;;;;;;;;;;;;;5015067;28;1362;-69
2022/10/15 05:38:46;;;;;;;;;;;;;;;;;;5033239;28;950;-69
2022/10/15 05:41:11;;;;;;;;;;;;;;;;;;5014899;28;1286;-68
2022/10/15 05:43:37;;;;;;;;;;;;;;;;;;5033264;28;959;-68
2022/10/15 05:46:02;;;;;;;;;;;;;;;;;;5014750;28;1918;-68
2022/10/15 05:48:27;;;;;;;;;;;;;;;;;;5015289;28;1296;-68
2022/10/15 05:50:53;;;;;;;;;;;;;;;;;;5031329;28;889;-68
2022/10/15 05:53:18;;;;;;;;;;;;;;;;;;5015388;28;1084;-69
2022/10/15 05:55:43;;;;;;;;;;;;;;;;;;5015810;28;1231;-69
2022/10/15 05:58:09;;;;;;;;;;;;;;;;;;5033294;28;813;-68
2022/10/15 06:00:34;;;;;;;;;;;;;;;;;;5034292;28;955;-68
2022/10/15 06:03:00;;;;;;;;;;;;;;;;;;5032605;28;822;-69
2022/10/15 06:05:25;;;;;;;;;;;;;;;;;;5033758;28;1975;-69
2022/10/15 06:07:50;;;;;;;;;;;;;;;;;;5015534;28;1142;-69
2022/10/15 06:10:16;;;;;;;;;;;;;;;;;;5014735;28;1377;-68
2022/10/15 06:12:41;;;;;;;;;;;;;;;;;;5014680;28;1368;-68
2022/10/15 06:15:07;;;;;;;;;;;;;;;;;;5014718;28;1338;-69
2022/10/15 06:17:32;;;;;;;;;;;;;;;;;;5014280;28;1318;-68
2022/10/15 06:19:58;;;;;;;;;;;;;;;;;;5031794;28;896;-68
2022/10/15 06:22:23;;;;;;;;;;;;;;;;;;5030266;28;1191;-68
2022/10/15 06:24:48;;;;;;;;;;;;;;;;;;5031550;28;1890;-68
2022/10/15 06:27:14;;;;;;;;;;;;;;;;;;5013756;28;1355;-68
2022/10/15 06:29:41;;;;;;;;;;;;;;;;;;5014709;28;1338;-70
2022/10/15 06:32:10;;;;;;;;;;;;;;;;;;5032352;28;935;-71
2022/10/15 06:34:35;;;;;;;;;;;;;;;;;;5014406;28;1253;-70
2022/10/15 06:37:00;;;;;;;;;;;;;;;;;;5014097;28;1287;-70
2022/10/15 06:39:26;;;;;;;;;;;;;;;;;;5030565;28;904;-71
2022/10/15 06:41:51;;;;;;;;;;;;;;;;;;5030510;28;869;-70
2022/10/15 06:44:17;;;;;;;;;;;;;;;;;;5031627;28;1967;-69
2022/10/15 06:46:42;;;;;;;;;;;;;;;;;;5031853;28;921;-70
2022/10/15 06:49:08;;;;;;;;;;;;;;;;;;5013566;28;1511;-70
2022/10/15 06:51:33;;;;;;;;;;;;;;;;;;5031838;28;872;-70
2022/10/15 06:53:58;;;;;;;;;;;;;;;;;;5031414;28;857;-70
2022/10/15 06:56:24;;;;;;;;;;;;;;;;;;5031400;28;849;-70
2022/10/15 06:58:49;;;;;;;;;;;;;;;;;;5013879;28;1213;-70
2022/10/15 07:01:15;;;;;;;;;;;;;;;;;;5031154;28;1009;-70
2022/10/15 07:03:41;;;;;;;;;;;;;;;;;;5014065;28;1212;-70
2022/10/15 07:06:07;;;;;;;;;;;;;;;;;;5013238;28;1967;-69
2022/10/15 07:08:33;;;;;;;;;;;;;;;;;;5031734;28;857;-70
2022/10/15 07:11:00;;;;;;;;;;;;;;;;;;5031543;28;809;-70
2022/10/15 07:13:25;;;;;;;;;;;;;;;;;;5013460;28;1251;-70
2022/10/15 07:15:52;;;;;;;;;;;;;;;;;;5013486;28;1228;-70
2022/10/15 07:18:18;;;;;;;;;;;;;;;;;;5013237;28;1497;-69
2022/10/15 07:20:44;;;;;;;;;;;;;;;;;;5013512;28;1160;-70
2022/10/15 07:23:10;;;;;;;;;;;;;;;;;;5029819;28;834;-70
2022/10/15 07:25:35;;;;;;;;;;;;;;;;;;5030746;28;1957;-70
2022/10/15 07:28:00;;;;;;;;;;;;;;;;;;5029865;28;1221;-70
2022/10/15 07:30:31;;;;;;;;;;;;;;;;;;5012881;28;1186;-70
2022/10/15 07:32:57;;;;;;;;;;;;;;;;;;5029584;28;880;-70
2022/10/15 07:35:23;;;;;;;;;;;;;;;;;;5012789;28;1326;-70
2022/10/15 07:37:49;;;;;;;;;;;;;;;;;;5013066;28;857;-70
2022/10/15 07:40:15;;;;;;;;;;;;;;;;;;5030602;28;889;-70
2022/10/15 07:42:40;;;;;;;;;;;;;;;;;;5031176;28;1211;-70
2022/10/15 07:45:06;;;;;;;;;;;;;;;;;;5012614;28;1971;-70
2022/10/15 07:47:31;;;;;;;;;;;;;;;;;;5013669;28;1204;-71
2022/10/15 07:49:57;;;;;;;;;;;;;;;;;;5013898;28;1331;-71
2022/10/15 07:52:22;;;;;;;;;;;;;;;;;;5030075;28;885;-71
2022/10/15 07:54:48;;;;;;;;;;;;;;;;;;5031956;28;834;-70
2022/10/15 07:57:13;;;;;;;;;;;;;;;;;;5013422;28;1299;-71
2022/10/15 07:59:38;;;;;;;;;;;;;;;;;;5013838;28;1279;-71
2022/10/15 08:02:03;;;;;;;;;;;;;;;;;;5030078;28;841;-71
2022/10/15 08:04:29;;;;;;;;;;;;;;;;;;5012951;28;2295;-71
2022/10/15 08:06:54;;;;;;;;;;;;;;;;;;5029619;28;805;-71
2022/10/15 08:09:20;;;;;;;;;;;;;;;;;;5031112;28;793;-71
2022/10/15 08:11:45;;;;;;;;;;;;;;;;;;5013288;28;1364;-71
2022/10/15 08:14:10;;;;;;;;;;;;;;;;;;5013020;28;1174;-71
2022/10/15 08:16:36;;;;;;;;;;;;;;;;;;5029930;28;916;-71
2022/10/15 08:19:01;;;;;;;;;;;;;;;;;;5012341;28;1132;-71
2022/10/15 08:21:26;;;;;;;;;;;;;;;;;;5012374;28;1192;-71
2022/10/15 08:23:52;;;;;;;;;;;;;;;;;;5030512;28;896;-71
2022/10/15 08:26:17;;;;;;;;;;;;;;;;;;5030232;28;1967;-71
2022/10/15 08:28:42;;;;;;;;;;;;;;;;;;5029220;28;1252;-71
2022/10/15 08:31:08;;;;;;;;;;;;;;;;;;5012522;28;1290;-71
2022/10/15 08:33:34;;;;;;;;;;;;;;;;;;5016775;28;1383;-70
2022/10/15 08:36:00;;;;;;;;;;;;;;;;;;5016813;28;1216;-71
2022/10/15 08:38:26;;;;;;;;;;;;;;;;;;5016524;28;1160;-71
2022/10/15 08:40:52;;;;;;;;;;;;;;;;;;5034345;28;841;-71
2022/10/15 08:43:38;;;;;;;;;;;;;;;;;;5034059;28;849;-71
2022/10/15 08:46:08;;;;;;;;;;;;;;;;;;5015641;28;1914;-71
2022/10/15 08:48:37;;;;;;;;;;;;;;;;;;5016632;28;1434;-71
2022/10/15 08:51:12;;;;;;;;;;;;;;;;;;5015989;28;1477;-71
2022/10/15 08:53:39;;;;;;;;;;;;;;;;;;5016370;28;1366;-71
2022/10/15 08:56:12;;;;;;;;;;;;;;;;;;5016189;28;1347;-71
2022/10/15 08:58:44;;;;;;;;;;;;;;;;;;5016896;28;1232;-72
2022/10/15 09:01:21;;;;;;;;;;;;;;;;;;5033616;28;888;-71
2022/10/15 09:03:54;;;;;;;;;;;;;;;;;;5034051;28;852;-71
2022/10/15 09:06:48;;;;;;;;;;;;;;;;;;5033410;28;1922;-71
2022/10/15 09:09:16;;;;;;;;;;;;;;;;;;5024340;28;1279;-72
2022/10/15 09:11:52;;;;;;;;;;;;;;;;;;5033980;28;967;-71
2022/10/15 09:14:21;;;;;;;;;;;;;;;;;;5033183;28;880;-71
2022/10/15 09:16:48;;;;;;;;;;;;;;;;;;5035131;28;1022;-71
2022/10/15 09:19:17;;;;;;;;;;;;;;;;;;5016405;28;1102;-71
2022/10/15 09:21:44;;;;;;;;;;;;;;;;;;5034490;28;822;-71
2022/10/15 09:24:11;;;;;;;;;;;;;;;;;;5033921;28;837;-71
2022/10/15 09:26:42;;;;;;;;;;;;;;;;;;5034343;28;1961;-70
2022/10/15 09:29:14;;;;;;;;;;;;;;;;;;5015174;28;1307;-71
2022/10/15 09:31:43;;;;;;;;;;;;;;;;;;5016165;28;1455;-71
2022/10/15 09:34:19;;;;;;;;;;;;;;;;;;5032829;28;904;-71
2022/10/15 09:36:53;;;;;;;;;;;;;;;;;;5015988;28;1237;-72
2022/10/15 09:39:39;;;;;;;;;;;;;;;;;;5014860;28;1208;-71
2022/10/15 09:42:08;;;;;;;;;;;;;;;;;;5014996;28;1530;-71
2022/10/15 09:44:38;;;;;;;;;;;;;;;;;;5032435;28;1914;-72
2022/10/15 09:47:13;;;;;;;;;;;;;;;;;;5033450;28;853;-71
2022/10/15 09:49:38;;;;;;;;;;;;;;;;;;5016151;28;1158;-73
2022/10/15 09:52:04;;;;;;;;;;;;;;;;;;5033060;28;801;-71
2022/10/15 09:54:42;;;;;;;;;;;;;;;;;;5014597;28;1208;-71
2022/10/15 09:57:10;;;;;;;;;;;;;;;;;;5014713;28;1209;-71
2022/10/15 09:59:35;;;;;;;;;;;;;;;;;;5033000;28;963;-71
2022/10/15 10:02:16;;;;;;;;;;;;;;;;;;5032991;28;895;-71
2022/10/15 10:04:41;;;;;;;;;;;;;;;;;;5015320;28;1969;-71
2022/10/15 10:07:07;;;;;;;;;;;;;;;;;;5014845;28;1380;-71
2022/10/15 10:09:48;;;;;;;;;;;;;;;;;;5032869;28;897;-67
2022/10/15 10:12:18;;;;;;;;;;;;;;;;;;5031686;28;928;-67
2022/10/15 10:14:51;;;;;;;;;;;;;;;;;;5032364;28;889;-67
2022/10/15 10:17:24;;;;;;;;;;;;;;;;;;5031924;28;977;-71
2022/10/15 10:20:07;;;;;;;;;;;;;;;;;;5032525;28;1386;-71
2022/10/15 10:22:42;;;;;;;;;;;;;;;;;;5014732;28;1176;-71
2022/10/15 10:25:26;;;;;;;;;;;;;;;;;;5014508;28;1890;-71
2022/10/15 10:28:12;;;;;;;;;;;;;;;;;;5032786;28;1130;-71
2022/10/15 10:30:48;;;;;;;;;;;;;;;;;;5015281;28;1468;-71
2022/10/15 10:33:17;;;;;;;;;;;;;;;;;;5032976;28;829;-71
2022/10/15 10:35:44;;;;;;;;;;;;;;;;;;5015015;28;1192;-72
2022/10/15 10:38:19;;;;;;;;;;;;;;;;;;5032577;28;861;-71
2022/10/15 10:40:48;;;;;;;;;;;;;;;;;;5014693;28;1446;-73
2022/10/15 10:43:14;;;;;;;;;;;;;;;;;;5031470;28;853;-67
2022/10/15 10:45:52;;;;;;;;;;;;;;;;;;5032487;28;1922;-67
2022/10/15 10:48:19;;;;;;;;;;;;;;;;;;5014715;28;1217;-69
2022/10/15 10:50:44;;;;;;;;;;;;;;;;;;5017042;28;1197;-66
2022/10/15 10:53:21;;;;;;;;;;;;;;;;;;5016451;28;1153;-67
2022/10/15 10:55:47;;;;;;;;;;;;;;;;;;5033400;28;1018;-68
2022/10/15 10:58:23;;;;;;;;;;;;;;;;;;5034134;28;833;-70
2022/10/15 11:00:51;;;;;;;;;;;;;;;;;;5017153;28;1221;-69
2022/10/15 11:03:16;;;;;;;;;;;;;;;;;;5015518;28;1400;-66
2022/10/15 11:05:42;;;;;;;;;;;;;;;;;;5017057;28;1958;-66
2022/10/15 11:08:40;;;;;;;;;;;;;;;;;;5017512;28;1399;-68
2022/10/15 11:11:11;;;;;;;;;;;;;;;;;;5012142;28;1055;-68
2022/10/15 11:13:42;;;;;;;;;;;;;;;;;;5017007;28;1211;-66
2022/10/15 11:16:08;;;;;;;;;;;;;;;;;;5034077;28;1001;-68
2022/10/15 11:18:51;;;;;;;;;;;;;;;;;;5033993;28;1035;-73
2022/10/15 11:21:20;;;;;;;;;;;;;;;;;;5033555;28;1074;-69
2022/10/15 11:24:01;;;;;;;;;;;;;;;;;;5033711;28;869;-68
2022/10/15 11:26:44;;;;;;;;;;;;;;;;;;5033512;28;1913;-67
2022/10/15 11:29:16;;;;;;;;;;;;;;;;;;5014456;28;1340;-67
2022/10/15 11:31:57;;;;;;;;;;;;;;;;;;5032327;28;833;-67
2022/10/15 11:34:41;;;;;;;;;;;;;;;;;;5013690;28;1335;-69
2022/10/15 11:37:25;;;;;;;;;;;;;;;;;;5014308;28;1221;-67
2022/10/15 11:39:59;;;;;;;;;;;;;;;;;;5014392;28;1335;-67
2022/10/15 11:42:31;;;;;;;;;;;;;;;;;;5013459;28;1276;-66
2022/10/15 11:45:09;;;;;;;;;;;;;;;;;;5031634;28;1934;-68
2022/10/15 11:47:44;;;;;;;;;;;;;;;;;;5014008;28;1343;-67
2022/10/15 11:50:28;;;;;;;;;;;;;;;;;;5013743;28;1216;-66
2022/10/15 11:53:05;;;;;;;;;;;;;;;;;;5032029;28;857;-67
2022/10/15 11:56:06;;;;;;;;;;;;;;;;;;5030713;28;853;-67
2022/10/15 11:58:34;;;;;;;;;;;;;;;;;;4972372;28;1523;-67
2022/10/15 12:01:03;;;;;;;;;;;;;;;;;;5006090;28;1182;-66
2022/10/15 12:03:32;;;;;;;;;;;;;;;;;;5013541;28;1221;-66
2022/10/15 12:06:24;;;;;;;;;;;;;;;;;;5031533;28;1894;-67
2022/10/15 12:08:51;;;;;;;;;;;;;;;;;;5033842;28;1130;-66
2022/10/15 12:11:19;;;;;;;;;;;;;;;;;;5017375;28;1214;-66
2022/10/15 12:14:03;;;;;;;;;;;;;;;;;;5018361;28;1469;-66
2022/10/15 12:16:43;;;;;;;;;;;;;;;;;;5035993;28;868;-67
2022/10/15 12:19:23;;;;;;;;;;;;;;;;;;5036594;28;872;-66
2022/10/15 12:21:54;;;;;;;;;;;;;;;;;;5036941;28;892;-67
2022/10/15 12:24:38;;;;;;;;;;;;;;;;;;5035932;28;972;-67
2022/10/15 12:27:19;;;;;;;;;;;;;;;;;;5018674;28;1415;-67
2022/10/15 12:30:07;;;;;;;;;;;;;;;;;;5018130;28;1284;-67
2022/10/15 12:32:40;;;;;;;;;;;;;;;;;;5036075;28;1336;-66
2022/10/15 12:35:26;;;;;;;;;;;;;;;;;;5017984;28;1467;-70
2022/10/15 12:37:51;;;;;;;;;;;;;;;;;;5010330;28;1558;-67
2022/10/15 12:40:19;;;;;;;;;;;;;;;;;;5014576;28;1157;-67
2022/10/15 12:42:48;;;;;;;;;;;;;;;;;;5015382;28;1200;-68
2022/10/15 12:45:22;;;;;;;;;;;;;;;;;;5033511;28;1963;-67
2022/10/15 12:48:11;;;;;;;;;;;;;;;;;;5016871;28;1223;-66
2022/10/15 12:50:36;;;;;;;;;;;;;;;;;;5033921;28;837;-66
2022/10/15 12:53:02;;;;;;;;;;;;;;;;;;5034071;28;951;-67
2022/10/15 12:55:27;;;;;;;;;;;;;;;;;;5015837;28;1243;-66
2022/10/15 12:57:57;;;;;;;;;;;;;;;;;;5016234;28;1327;-66
2022/10/15 13:00:26;;;;;;;;;;;;;;;;;;5033558;28;891;-67
2022/10/15 13:02:53;;;;;;;;;;;;;;;;;;5034179;28;900;-66
2022/10/15 13:05:26;;;;;;;;;;;;;;;;;;5033711;28;1910;-67
2022/10/15 13:07:52;;;;;;;;;;;;;;;;;;5034995;28;921;-67
2022/10/15 13:10:23;;;;;;;;;;;;;;;;;;5033434;28;750;-67
2022/10/15 13:12:57;;;;;;;;;;;;;;;;;;5034254;28;944;-67
2022/10/15 13:15:25;;;;;;;;;;;;;;;;;;5033593;28;972;-67
2022/10/15 13:17:51;;;;;;;;;;;;;;;;;;5016092;28;1371;-67
2022/10/15 13:20:29;;;;;;;;;;;;;;;;;;5033784;28;972;-67
2022/10/15 13:23:06;;;;;;;;;;;;;;;;;;5034742;28;880;-68
2022/10/15 13:25:32;;;;;;;;;;;;;;;;;;5033161;28;1902;-68
2022/10/15 13:27:57;;;;;;;;;;;;;;;;;;5032557;28;1106;-67
2022/10/15 13:30:23;;;;;;;;;;;;;;;;;;5015540;28;1271;-67
2022/10/15 13:32:54;;;;;;;;;;;;;;;;;;5016322;28;1204;-68
2022/10/15 13:35:31;;;;;;;;;;;;;;;;;;5033472;28;844;-67
2022/10/15 13:37:57;;;;;;;;;;;;;;;;;;5033771;28;851;-68
2022/10/15 13:40:31;;;;;;;;;;;;;;;;;;5033431;28;868;-68
2022/10/15 13:43:05;;;;;;;;;;;;;;;;;;5016198;28;1328;-68
2022/10/15 13:45:31;;;;;;;;;;;;;;;;;;5033008;28;1964;-68
2022/10/15 13:47:57;;;;;;;;;;;;;;;;;;5016058;28;1220;-68
2022/10/15 13:50:23;;;;;;;;;;;;;;;;;;5015450;28;1236;-68
2022/10/15 13:52:52;;;;;;;;;;;;;;;;;;5033908;28;908;-68
2022/10/15 13:55:20;;;;;;;;;;;;;;;;;;5033522;28;900;-68
2022/10/15 13:57:47;;;;;;;;;;;;;;;;;;5016669;28;1279;-69
2022/10/15 14:00:20;;;;;;;;;;;;;;;;;;5034200;28;910;-68
2022/10/15 14:02:45;;;;;;;;;;;;;;;;;;5016155;28;1336;-68
2022/10/15 14:05:14;;;;;;;;;;;;;;;;;;5016093;28;1914;-68
2022/10/15 14:07:39;;;;;;;;;;;;;;;;;;5016548;28;1328;-68
2022/10/15 14:10:05;;;;;;;;;;;;;;;;;;5034584;28;853;-68
2022/10/15 14:12:30;;;;;;;;;;;;;;;;;;5015631;28;1205;-69
2022/10/15 14:15:15;;;;;;;;;;;;;;;;;;5033176;28;860;-72
2022/10/15 14:17:41;;;;;;;;;;;;;;;;;;5033843;28;1063;-68
2022/10/15 14:20:14;;;;;;;;;;;;;;;;;;5016192;28;1335;-71
2022/10/15 14:22:39;;;;;;;;;;;;;;;;;;5034433;28;940;-71
2022/10/15 14:25:07;;;;;;;;;;;;;;;;;;5016578;28;1986;-74
2022/10/15 14:27:33;;;;;;;;;;;;;;;;;;5016395;28;1455;-73
2022/10/15 14:30:00;;;;;;;;;;;;;;;;;;5033450;28;1347;-69
2022/10/15 14:32:30;;;;;;;;;;;;;;;;;;5033642;28;867;-69
2022/10/15 14:34:56;;;;;;;;;;;;;;;;;;5034170;28;833;-69
2022/10/15 14:37:29;;;;;;;;;;;;;;;;;;5015704;28;1060;-74
2022/10/15 14:40:07;;;;;;;;;;;;;;;;;;5015352;28;1255;-74
2022/10/15 14:42:33;;;;;;;;;;;;;;;;;;5014711;28;1435;-74
2022/10/15 14:45:09;;;;;;;;;;;;;;;;;;5015551;28;1906;-74
2022/10/15 14:47:34;;;;;;;;;;;;;;;;;;5014287;28;1252;-72
2022/10/15 14:50:00;;;;;;;;;;;;;;;;;;5032491;28;948;-71
2022/10/15 14:52:27;;;;;;;;;;;;;;;;;;5014633;28;1196;-71
2022/10/15 14:55:05;;;;;;;;;;;;;;;;;;5033015;28;868;-69
2022/10/15 14:57:33;;;;;;;;;;;;;;;;;;5032596;28;1079;-76
2022/10/15 14:59:59;;;;;;;;;;;;;;;;;;5032395;28;822;-73
2022/10/15 15:02:25;;;;;;;;;;;;;;;;;;5032654;28;924;-71
2022/10/15 15:05:03;;;;;;;;;;;;;;;;;;5014885;28;1960;-71
2022/10/15 15:07:28;;;;;;;;;;;;;;;;;;5014423;28;1309;-71
2022/10/15 15:09:53;;;;;;;;;;;;;;;;;;5031598;28;921;-71
2022/10/15 15:12:20;;;;;;;;;;;;;;;;;;5030893;28;999;-70
2022/10/15 15:14:46;;;;;;;;;;;;;;;;;;5014130;28;1300;-67
2022/10/15 15:17:13;;;;;;;;;;;;;;;;;;5032217;28;990;-70
2022/10/15 15:19:39;;;;;;;;;;;;;;;;;;5031906;28;850;-68
2022/10/15 15:22:04;;;;;;;;;;;;;;;;;;5014329;28;1339;-70
2022/10/15 15:24:29;;;;;;;;;;;;;;;;;;5013557;28;1181;-70
2022/10/15 15:26:55;;;;;;;;;;;;;;;;;;5013376;28;1902;-71
2022/10/15 15:29:20;;;;;;;;;;;;;;;;;;5009142;28;1423;-70
2022/10/15 15:31:46;;;;;;;;;;;;;;;;;;5009618;28;1447;-70
2022/10/15 15:34:11;;;;;;;;;;;;;;;;;;5027892;28;904;-70
2022/10/15 15:36:37;;;;;;;;;;;;;;;;;;5029659;28;1785;-72
2022/10/15 15:39:02;;;;;;;;;;;;;;;;;;5011807;28;1657;-72
2022/10/15 15:41:27;;;;;;;;;;;;;;;;;;5020170;28;1244;-71
2022/10/15 15:43:55;;;;;;;;;;;;;;;;;;5033527;28;861;-72
2022/10/15 15:46:20;;;;;;;;;;;;;;;;;;5016676;28;1910;-71
2022/10/15 15:48:46;;;;;;;;;;;;;;;;;;5011535;28;1656;-71
2022/10/15 15:51:25;;;;;;;;;;;;;;;;;;5012625;28;1549;-71
2022/10/15 15:53:50;;;;;;;;;;;;;;;;;;4995079;28;1181;-71
2022/10/15 15:56:16;;;;;;;;;;;;;;;;;;5010909;28;1664;-72
2022/10/15 15:58:41;;;;;;;;;;;;;;;;;;5011069;28;1551;-72
2022/10/15 16:01:06;;;;;;;;;;;;;;;;;;5039941;28;1625;-71
2022/10/15 16:03:32;;;;;;;;;;;;;;;;;;5047245;28;1327;-71
2022/10/15 16:05:57;;;;;;;;;;;;;;;;;;5014376;28;1902;-71
2022/10/15 16:08:22;;;;;;;;;;;;;;;;;;5024746;28;1573;-71
2022/10/15 16:10:48;;;;;;;;;;;;;;;;;;5010141;28;1571;-71
2022/10/15 16:13:13;;;;;;;;;;;;;;;;;;5028501;28;1566;-70
2022/10/15 16:15:38;;;;;;;;;;;;;;;;;;4999760;28;1574;-70
2022/10/15 16:18:03;;;;;;;;;;;;;;;;;;5030048;28;1664;-71
2022/10/15 16:20:29;;;;;;;;;;;;;;;;;;5013493;28;1212;-70
2022/10/15 16:22:54;;;;;;;;;;;;;;;;;;5047031;28;1224;-71
2022/10/15 16:25:20;;;;;;;;;;;;;;;;;;5013298;28;1909;-71
2022/10/15 16:27:47;;;;;;;;;;;;;;;;;;5028862;28;1377;-70
2022/10/15 16:30:13;;;;;;;;;;;;;;;;;;5002624;28;1810;-70
2022/10/15 16:32:38;;;;;;;;;;;;;;;;;;5030593;28;1372;-71
2022/10/15 16:35:03;;;;;;;;;;;;;;;;;;5029271;28;978;-71
2022/10/15 16:37:29;;;;;;;;;;;;;;;;;;5013633;28;1190;-71
2022/10/15 16:39:54;;;;;;;;;;;;;;;;;;5013616;28;1185;-71
2022/10/15 16:42:20;;;;;;;;;;;;;;;;;;5031509;28;901;-70
2022/10/15 16:44:45;;;;;;;;;;;;;;;;;;5030489;28;1976;-71
2022/10/15 16:47:10;;;;;;;;;;;;;;;;;;5013907;28;1248;-72
2022/10/15 16:49:35;;;;;;;;;;;;;;;;;;5030170;28;1223;-72
2022/10/15 16:52:01;;;;;;;;;;;;;;;;;;5030718;28;841;-71
2022/10/15 16:54:26;;;;;;;;;;;;;;;;;;5017847;28;1296;-71
2022/10/15 16:56:52;;;;;;;;;;;;;;;;;;5043191;28;1000;-71
2022/10/15 16:59:17;;;;;;;;;;;;;;;;;;5033009;28;1366;-71
2022/10/15 17:01:43;;;;;;;;;;;;;;;;;;5037863;28;1070;-70
2022/10/15 17:04:08;;;;;;;;;;;;;;;;;;5034302;28;1195;-70
2022/10/15 17:06:34;;;;;;;;;;;;;;;;;;5017810;28;2001;-71
2022/10/15 17:09:02;;;;;;;;;;;;;;;;;;5018301;28;1383;-71
2022/10/15 17:11:31;;;;;;;;;;;;;;;;;;5017846;28;1496;-72
2022/10/15 17:13:57;;;;;;;;;;;;;;;;;;5018436;28;1281;-72
2022/10/15 17:16:30;;;;;;;;;;;;;;;;;;5017535;28;1142;-72
2022/10/15 17:18:56;;;;;;;;;;;;;;;;;;5033775;28;1181;-71